Time;durP1;ratioP1;P1;durP2;ratioP2;P2;SDS_P1;SDS_P2;PMS_P1;PMS_P2;Temp;Humidity;BMP_temperature;BMP_pressure;BME280_temperature;BME280_humidity;BME280_pressure;Samples;Min_cycle;Max_cycle;Signal;HPM_P1;HPM_P2
2024/01/16 00:00:35;;;;;;;4.55;1.83;;;1.30;99.90;;;;;;5060901;28;20202;-66
2024/01/16 00:03:02;;;;;;;2.20;2.00;;;1.30;99.90;;;;;;5059829;28;20238;-64
2024/01/16 00:05:29;;;;;;;2.10;1.90;;;1.30;99.90;;;;;;5058568;28;20201;-64
2024/01/16 00:07:55;;;;;;;4.75;2.20;;;1.30;99.90;;;;;;5057410;28;20202;-65
2024/01/16 00:10:22;;;;;;;3.75;2.00;;;1.30;99.90;;;;;;5058246;28;20208;-66
2024/01/16 00:12:49;;;;;;;1.88;1.65;;;1.30;99.90;;;;;;5057384;28;20218;-64
2024/01/16 00:15:17;;;;;;;2.28;1.65;;;1.20;99.90;;;;;;5056214;28;20202;-65
2024/01/16 00:17:44;;;;;;;3.83;2.08;;;1.20;99.90;;;;;;5056071;28;20221;-64
2024/01/16 00:20:11;;;;;;;1.52;1.38;;;1.30;99.90;;;;;;5055780;28;20216;-65
2024/01/16 00:22:38;;;;;;;2.03;1.80;;;1.30;99.90;;;;;;5054036;28;20726;-65
2024/01/16 00:25:06;;;;;;;1.75;1.17;;;1.30;99.90;;;;;;5054976;28;20202;-65
2024/01/16 00:27:32;;;;;;;3.10;1.60;;;1.30;99.90;;;;;;5054587;28;20213;-66
2024/01/16 00:29:59;;;;;;;4.75;1.63;;;1.20;99.90;;;;;;5059546;28;20212;-65
2024/01/16 00:32:27;;;;;;;2.00;1.02;;;1.30;99.90;;;;;;5060447;28;20726;-65
2024/01/16 00:34:54;;;;;;;1.73;1.45;;;1.20;99.90;;;;;;5060208;28;20206;-65
2024/01/16 00:37:21;;;;;;;2.33;1.48;;;1.30;99.90;;;;;;5059694;28;20222;-66
2024/01/16 00:39:48;;;;;;;2.75;1.40;;;1.20;99.90;;;;;;5059207;28;20197;-65
2024/01/16 00:42:15;;;;;;;1.30;1.20;;;1.20;99.90;;;;;;5059248;28;20221;-66
2024/01/16 00:44:41;;;;;;;1.15;1.05;;;1.20;99.90;;;;;;5059238;28;20201;-64
2024/01/16 00:47:08;;;;;;;1.45;1.05;;;1.20;99.90;;;;;;5060578;28;20208;-65
2024/01/16 00:49:37;;;;;;;0.98;0.90;;;1.20;99.90;;;;;;5061238;28;20220;-65
2024/01/16 00:52:05;;;;;;;0.82;0.80;;;1.20;99.90;;;;;;5062351;28;20226;-63
2024/01/16 00:54:32;;;;;;;1.45;0.95;;;1.20;99.90;;;;;;5064251;28;20636;-65
2024/01/16 00:56:59;;;;;;;3.97;1.40;;;1.20;99.90;;;;;;5066075;28;20201;-66
2024/01/16 00:59:26;;;;;;;1.40;1.10;;;1.20;99.90;;;;;;5066347;28;20205;-66
2024/01/16 01:01:53;;;;;;;0.93;0.82;;;1.20;99.90;;;;;;5063375;28;20245;-65
2024/01/16 01:04:20;;;;;;;3.67;1.38;;;1.20;99.90;;;;;;5061796;28;20198;-66
2024/01/16 01:06:48;;;;;;;1.60;1.35;;;1.20;99.90;;;;;;5062495;28;20217;-66
2024/01/16 01:09:14;;;;;;;1.25;1.15;;;1.20;99.90;;;;;;5063360;28;20658;-66
2024/01/16 01:11:41;;;;;;;6.10;1.50;;;1.20;99.90;;;;;;5062596;28;20221;-65
2024/01/16 01:14:08;;;;;;;1.73;1.30;;;1.20;99.90;;;;;;5063302;28;20198;-65
2024/01/16 01:16:35;;;;;;;1.95;1.30;;;1.20;99.90;;;;;;5063340;28;20288;-65
2024/01/16 01:19:03;;;;;;;1.50;1.13;;;1.20;99.90;;;;;;5063640;28;20695;-64
2024/01/16 01:21:30;;;;;;;3.70;2.17;;;1.20;99.90;;;;;;5062958;28;20229;-65
2024/01/16 01:23:58;;;;;;;5.60;2.38;;;1.20;99.90;;;;;;5064602;28;20287;-65
2024/01/16 01:26:24;;;;;;;2.85;1.55;;;1.20;99.90;;;;;;5063572;28;20205;-65
2024/01/16 01:28:52;;;;;;;2.22;2.03;;;1.20;99.90;;;;;;5062757;28;20194;-66
2024/01/16 01:31:19;;;;;;;3.00;1.88;;;1.20;99.90;;;;;;5065304;28;20206;-66
2024/01/16 01:33:46;;;;;;;3.80;2.70;;;1.20;99.90;;;;;;5068418;28;20201;-66
2024/01/16 01:36:12;;;;;;;3.63;2.47;;;1.20;99.90;;;;;;5068071;28;20280;-66
2024/01/16 01:38:39;;;;;;;2.30;1.85;;;1.20;99.90;;;;;;5068206;28;20232;-66
2024/01/16 01:41:07;;;;;;;4.35;2.33;;;1.10;99.90;;;;;;5067624;28;20202;-66
2024/01/16 01:43:34;;;;;;;2.85;1.90;;;1.10;99.90;;;;;;5067770;28;20206;-66
2024/01/16 01:46:10;;;;;;;1.83;1.63;;;1.00;99.90;;;;;;5068969;28;20212;-66
2024/01/16 01:48:39;;;;;;;2.58;1.50;;;1.00;99.90;;;;;;5068410;28;20186;-66
2024/01/16 01:51:06;;;;;;;2.92;1.42;;;0.90;99.90;;;;;;5068273;28;20202;-66
2024/01/16 01:53:34;;;;;;;3.55;2.00;;;0.90;99.90;;;;;;5068412;28;20225;-65
2024/01/16 01:56:05;;;;;;;1.60;1.50;;;0.90;99.90;;;;;;5066300;28;20252;-65
2024/01/16 01:58:34;;;;;;;2.33;2.13;;;0.90;99.90;;;;;;5062921;28;20220;-64
2024/01/16 02:01:02;;;;;;;2.75;1.52;;;0.90;99.90;;;;;;5063323;28;20206;-66
2024/01/16 02:03:30;;;;;;;7.82;2.08;;;0.90;99.90;;;;;;5060975;28;20608;-65
2024/01/16 02:05:57;;;;;;;7.13;1.60;;;1.00;99.90;;;;;;5061957;28;20251;-65
2024/01/16 02:08:24;;;;;;;3.28;1.90;;;1.00;99.90;;;;;;5061441;28;20209;-65
2024/01/16 02:10:51;;;;;;;5.22;1.48;;;1.00;99.90;;;;;;5062616;28;20205;-65
2024/01/16 02:13:23;;;;;;;3.58;1.40;;;1.00;99.90;;;;;;5063622;28;20221;-66
2024/01/16 02:15:51;;;;;;;3.15;1.30;;;1.00;99.90;;;;;;5063968;28;20190;-66
2024/01/16 02:18:18;;;;;;;4.18;1.60;;;1.00;99.90;;;;;;5063746;28;20222;-64
2024/01/16 02:20:46;;;;;;;2.95;1.40;;;1.00;99.90;;;;;;5064474;28;20202;-66
2024/01/16 02:23:15;;;;;;;2.53;1.70;;;1.00;99.90;;;;;;5063322;28;20288;-66
2024/01/16 02:25:44;;;;;;;1.50;1.30;;;1.00;99.90;;;;;;5063569;28;20201;-65
2024/01/16 02:28:11;;;;;;;4.22;1.27;;;1.00;99.90;;;;;;5063989;28;20209;-66
2024/01/16 02:30:38;;;;;;;4.63;2.05;;;1.00;99.90;;;;;;5063444;28;20570;-65
2024/01/16 02:33:05;;;;;;;3.05;1.67;;;1.00;99.90;;;;;;5062394;28;20232;-65
2024/01/16 02:35:31;;;;;;;1.98;1.10;;;1.00;99.90;;;;;;5062121;28;20201;-65
2024/01/16 02:38:00;;;;;;;1.70;1.60;;;1.00;99.90;;;;;;5062119;28;20245;-66
2024/01/16 02:40:27;;;;;;;3.42;1.17;;;1.00;99.90;;;;;;5063373;28;20202;-65
2024/01/16 02:42:55;;;;;;;1.90;1.20;;;0.90;99.90;;;;;;5063694;28;20711;-65
2024/01/16 02:45:22;;;;;;;3.22;1.58;;;0.90;99.90;;;;;;5061851;28;20212;-64
2024/01/16 02:47:49;;;;;;;3.42;1.50;;;0.90;99.90;;;;;;5057184;28;20726;-66
2024/01/16 02:50:16;;;;;;;3.05;1.77;;;0.80;99.90;;;;;;5055957;28;20573;-66
2024/01/16 02:52:43;;;;;;;4.10;1.55;;;0.80;99.90;;;;;;5053956;28;20696;-67
2024/01/16 02:55:10;;;;;;;2.47;1.75;;;0.80;99.90;;;;;;5055524;28;20216;-65
2024/01/16 02:57:36;;;;;;;3.50;1.35;;;0.70;99.90;;;;;;5055663;28;20582;-66
2024/01/16 03:00:07;;;;;;;1.38;1.00;;;0.70;99.90;;;;;;5056562;28;20209;-64
2024/01/16 03:02:34;;;;;;;4.15;2.22;;;0.70;99.90;;;;;;5078400;22;20655;-60
2024/01/16 03:05:01;;;;;;;2.35;1.85;;;0.70;99.90;;;;;;5074335;28;20205;-60
2024/01/16 03:07:27;;;;;;;2.25;1.67;;;0.70;99.90;;;;;;5074180;28;20212;-60
2024/01/16 03:09:54;;;;;;;3.80;2.03;;;0.70;99.90;;;;;;5074333;28;20205;-61
2024/01/16 03:12:21;;;;;;;6.93;2.00;;;0.70;99.90;;;;;;5080926;28;20231;-60
2024/01/16 03:14:48;;;;;;;5.15;2.00;;;0.70;99.90;;;;;;5094696;28;20200;-60
2024/01/16 03:17:16;;;;;;;6.97;1.55;;;0.70;99.90;;;;;;5094292;28;20203;-60
2024/01/16 03:19:43;;;;;;;2.35;1.50;;;0.70;99.90;;;;;;5094049;28;20224;-60
2024/01/16 03:22:10;;;;;;;2.42;1.70;;;0.60;99.90;;;;;;5095349;28;20242;-60
2024/01/16 03:24:37;;;;;;;4.82;2.15;;;0.60;99.90;;;;;;5097451;28;20196;-60
2024/01/16 03:27:05;;;;;;;6.80;1.70;;;0.60;99.90;;;;;;5096029;28;20223;-60
2024/01/16 03:29:33;;;;;;;1.80;1.67;;;0.60;99.90;;;;;;5095013;28;20200;-60
2024/01/16 03:32:00;;;;;;;3.67;1.90;;;0.50;99.90;;;;;;5094302;28;20216;-60
2024/01/16 03:34:28;;;;;;;4.15;2.08;;;0.50;99.90;;;;;;5094577;28;20203;-60
2024/01/16 03:36:55;;;;;;;5.05;2.35;;;0.40;99.90;;;;;;5094913;28;20204;-60
2024/01/16 03:39:22;;;;;;;5.82;2.80;;;0.40;99.90;;;;;;5093987;28;20541;-60
2024/01/16 03:41:49;;;;;;;2.08;1.67;;;0.30;99.90;;;;;;5094112;28;20666;-60
2024/01/16 03:44:16;;;;;;;7.78;2.40;;;0.30;99.90;;;;;;5094569;28;20547;-59
2024/01/16 03:46:42;;;;;;;4.45;2.10;;;0.20;99.90;;;;;;5094360;28;20690;-60
2024/01/16 03:49:09;;;;;;;8.13;2.40;;;0.20;99.90;;;;;;5094094;28;20203;-60
2024/01/16 03:51:37;;;;;;;4.13;2.10;;;0.20;99.90;;;;;;5094139;28;20576;-60
2024/01/16 03:54:05;;;;;;;3.97;1.95;;;0.20;99.90;;;;;;5094678;28;20200;-60
2024/01/16 03:56:31;;;;;;;4.85;2.22;;;0.20;99.90;;;;;;5095121;28;20541;-61
2024/01/16 03:58:58;;;;;;;7.60;2.30;;;0.20;99.90;;;;;;5094732;28;20217;-60
2024/01/16 04:01:32;;;;;;;3.17;2.05;;;0.20;99.90;;;;;;5094618;28;20200;-59
2024/01/16 04:03:59;;;;;;;10.65;2.17;;;0.20;99.90;;;;;;5093456;28;20212;-59
2024/01/16 04:06:26;;;;;;;10.50;2.22;;;0.20;99.90;;;;;;5093675;28;20208;-60
2024/01/16 04:08:54;;;;;;;2.88;1.70;;;0.20;99.90;;;;;;5104267;28;20549;-59
2024/01/16 04:13:01;;;;;;;2.53;1.60;;;0.20;99.90;;;;;;5091748;28;20557;-61
2024/01/16 04:15:28;;;;;;;4.75;1.90;;;0.20;99.90;;;;;;5091492;28;20184;-61
2024/01/16 04:17:55;;;;;;;8.13;3.50;;;0.10;99.90;;;;;;5091335;28;20697;-60
2024/01/16 04:20:22;;;;;;;7.57;2.00;;;0.20;99.90;;;;;;5091595;28;20199;-61
2024/01/16 04:22:49;;;;;;;4.00;1.80;;;0.20;99.90;;;;;;5091320;28;20709;-61
2024/01/16 04:25:16;;;;;;;2.38;1.60;;;0.20;99.90;;;;;;5083453;22;20229;-62
2024/01/16 04:27:43;;;;;;;7.45;1.80;;;0.20;99.90;;;;;;5050019;28;20198;-61
2024/01/16 04:30:12;;;;;;;3.38;1.60;;;0.20;99.90;;;;;;5050335;28;20205;-62
2024/01/16 04:32:38;;;;;;;6.97;3.45;;;0.30;99.90;;;;;;5050473;28;20222;-61
2024/01/16 04:35:05;;;;;;;6.78;2.10;;;0.30;99.90;;;;;;5050270;28;20229;-61
2024/01/16 04:37:32;;;;;;;8.15;2.30;;;0.30;99.90;;;;;;5050422;28;20198;-62
2024/01/16 04:39:59;;;;;;;5.03;2.00;;;0.30;99.90;;;;;;5049801;28;20296;-62
2024/01/16 04:42:26;;;;;;;4.80;1.60;;;0.40;99.90;;;;;;5050031;28;20197;-62
2024/01/16 04:44:52;;;;;;;2.88;1.98;;;0.40;99.90;;;;;;5050114;28;20221;-61
2024/01/16 04:47:20;;;;;;;9.43;2.00;;;0.40;99.90;;;;;;5050066;28;20202;-60
2024/01/16 04:49:47;;;;;;;6.03;2.38;;;0.30;99.90;;;;;;5050242;28;20228;-62
2024/01/16 04:52:14;;;;;;;3.60;1.65;;;0.40;99.90;;;;;;5049689;28;20214;-62
2024/01/16 04:54:41;;;;;;;5.40;2.13;;;0.30;99.90;;;;;;5049454;28;20587;-61
2024/01/16 04:57:08;;;;;;;4.72;2.28;;;0.30;99.90;;;;;;5049583;28;20217;-61
2024/01/16 04:59:35;;;;;;;3.75;2.05;;;0.30;99.90;;;;;;5049863;28;20205;-62
2024/01/16 05:02:02;;;;;;;4.22;1.42;;;0.30;99.90;;;;;;5083188;22;20225;-61
2024/01/16 05:04:30;;;;;;;4.70;2.60;;;0.30;99.90;;;;;;5075533;28;20259;-61
2024/01/16 05:06:56;;;;;;;5.65;1.90;;;0.30;99.90;;;;;;5071333;28;20201;-61
2024/01/16 05:09:23;;;;;;;2.47;1.75;;;0.40;99.90;;;;;;5071803;28;20279;-61
2024/01/16 05:11:50;;;;;;;3.60;2.20;;;0.30;99.90;;;;;;5071521;28;20274;-62
2024/01/16 05:14:17;;;;;;;6.10;2.30;;;0.30;99.90;;;;;;5071125;28;20213;-61
2024/01/16 05:16:44;;;;;;;2.90;2.05;;;0.30;99.90;;;;;;5071271;28;20205;-61
2024/01/16 05:19:11;;;;;;;9.50;2.38;;;0.30;99.90;;;;;;5073895;28;20204;-61
2024/01/16 05:21:41;;;;;;;3.83;2.00;;;0.20;99.90;;;;;;5074928;28;20217;-61
2024/01/16 05:24:08;;;;;;;3.47;2.20;;;0.20;99.90;;;;;;5060961;28;20205;-61
2024/01/16 05:26:35;;;;;;;4.40;1.70;;;0.20;99.90;;;;;;5057975;28;20212;-62
2024/01/16 05:29:02;;;;;;;2.22;1.70;;;0.10;99.90;;;;;;5057724;28;20264;-59
2024/01/16 05:31:28;;;;;;;4.28;2.55;;;0.10;99.90;;;;;;5058423;28;20245;-60
2024/01/16 05:33:55;;;;;;;4.22;1.92;;;0.10;99.90;;;;;;5057239;28;20586;-62
2024/01/16 05:36:22;;;;;;;4.30;3.75;;;0.10;99.90;;;;;;5057657;28;20203;-60
2024/01/16 05:38:53;;;;;;;9.63;2.75;;;0.10;99.90;;;;;;5058029;28;20202;-62
2024/01/16 05:41:19;;;;;;;3.72;2.50;;;0.00;99.90;;;;;;5057313;28;20214;-61
2024/01/16 05:43:46;;;;;;;3.88;2.13;;;0.00;99.90;;;;;;5057274;28;20206;-61
2024/01/16 05:46:14;;;;;;;3.35;2.35;;;0.00;99.90;;;;;;5058935;28;20206;-61
2024/01/16 05:48:40;;;;;;;8.73;2.90;;;0.00;99.90;;;;;;5068189;28;20208;-62
2024/01/16 05:51:07;;;;;;;11.68;3.05;;;0.00;99.90;;;;;;5068247;28;20202;-62
2024/01/16 05:53:34;;;;;;;3.20;2.40;;;0.00;99.90;;;;;;5060912;28;20214;-61
2024/01/16 05:56:02;;;;;;;7.00;2.65;;;0.00;99.90;;;;;;5057529;28;20202;-60
2024/01/16 05:58:29;;;;;;;7.97;2.45;;;0.00;99.90;;;;;;5057627;28;20201;-61
2024/01/16 06:00:56;;;;;;;4.82;4.10;;;0.00;99.90;;;;;;5056754;28;20205;-60
2024/01/16 06:03:23;;;;;;;13.07;3.42;;;-0.10;99.90;;;;;;5056592;28;20202;-62
2024/01/16 06:05:49;;;;;;;11.98;3.00;;;-0.10;99.90;;;;;;5063301;28;20284;-61
2024/01/16 06:08:16;;;;;;;7.05;2.97;;;0.00;99.90;;;;;;5059980;28;20663;-62
2024/01/16 06:10:43;;;;;;;4.60;2.70;;;0.00;99.90;;;;;;5056731;28;20202;-60
2024/01/16 06:13:11;;;;;;;6.72;2.67;;;0.10;99.90;;;;;;5057039;28;20230;-60
2024/01/16 06:15:38;;;;;;;11.02;3.35;;;0.10;99.90;;;;;;5057090;28;20213;-61
2024/01/16 06:18:05;;;;;;;7.22;4.40;;;0.10;99.90;;;;;;5056767;28;20215;-61
2024/01/16 06:20:32;;;;;;;8.23;3.55;;;0.20;99.90;;;;;;5057080;28;20213;-61
2024/01/16 06:22:59;;;;;;;4.53;3.65;;;0.20;99.90;;;;;;5057019;28;20313;-62
2024/01/16 06:25:26;;;;;;;5.65;3.00;;;0.20;99.90;;;;;;5057047;28;20201;-62
2024/01/16 06:27:53;;;;;;;9.98;3.10;;;0.20;99.90;;;;;;5056923;28;20198;-62
2024/01/16 06:30:21;;;;;;;10.55;3.10;;;0.20;99.90;;;;;;5057584;28;20288;-61
2024/01/16 06:32:48;;;;;;;5.25;2.85;;;0.20;99.90;;;;;;5059488;28;20221;-62
2024/01/16 06:35:16;;;;;;;6.32;3.17;;;0.20;99.90;;;;;;5059165;28;20205;-62
2024/01/16 06:37:43;;;;;;;4.30;3.10;;;0.20;99.90;;;;;;5059793;28;20201;-62
2024/01/16 06:40:11;;;;;;;6.45;3.42;;;0.20;99.90;;;;;;5056723;28;20214;-61
2024/01/16 06:42:38;;;;;;;4.78;2.92;;;0.30;99.90;;;;;;5056426;28;20711;-61
2024/01/16 06:45:05;;;;;;;9.18;4.30;;;0.30;99.90;;;;;;5058130;28;20293;-61
2024/01/16 06:47:34;;;;;;;4.63;2.97;;;0.40;99.90;;;;;;5056021;28;20208;-62
2024/01/16 06:50:01;;;;;;;5.05;3.47;;;0.50;99.90;;;;;;5055662;28;20209;-62
2024/01/16 06:52:28;;;;;;;6.45;3.15;;;0.50;99.90;;;;;;5055646;28;20221;-62
2024/01/16 06:54:55;;;;;;;6.95;2.42;;;0.60;99.90;;;;;;5055210;28;20210;-62
2024/01/16 06:57:21;;;;;;;6.57;4.07;;;0.60;99.90;;;;;;5055821;28;20198;-59
2024/01/16 06:59:49;;;;;;;4.45;3.25;;;0.70;99.90;;;;;;5055797;28;20240;-63
2024/01/16 07:02:16;;;;;;;6.00;3.50;;;0.70;99.90;;;;;;5061141;28;20222;-61
2024/01/16 07:04:44;;;;;;;6.22;3.80;;;0.70;99.90;;;;;;5061262;28;20212;-62
2024/01/16 07:07:11;;;;;;;6.10;3.42;;;0.70;99.90;;;;;;5056827;28;20209;-62
2024/01/16 07:09:38;;;;;;;6.95;3.10;;;0.60;99.90;;;;;;5055827;28;20690;-62
2024/01/16 07:12:05;;;;;;;5.18;3.40;;;0.60;99.90;;;;;;5054464;28;20264;-60
2024/01/16 07:14:34;;;;;;;4.72;3.70;;;0.50;99.90;;;;;;5054346;28;20205;-60
2024/01/16 07:17:01;;;;;;;7.78;3.10;;;0.50;99.90;;;;;;5060368;28;20236;-61
2024/01/16 07:19:27;;;;;;;9.88;4.05;;;0.50;99.90;;;;;;5061901;28;20216;-62
2024/01/16 07:21:55;;;;;;;9.30;3.78;;;0.50;99.90;;;;;;5055924;28;20222;-61
2024/01/16 07:24:23;;;;;;;8.13;4.20;;;0.50;99.90;;;;;;5054221;28;20198;-61
2024/01/16 07:26:49;;;;;;;6.75;4.05;;;0.50;99.90;;;;;;5053614;28;20205;-61
2024/01/16 07:29:16;;;;;;;9.75;5.25;;;0.50;99.90;;;;;;5053813;28;20197;-62
2024/01/16 07:31:43;;;;;;;11.48;4.78;;;0.40;99.90;;;;;;5053460;28;20316;-62
2024/01/16 07:34:09;;;;;;;6.22;3.80;;;0.40;99.90;;;;;;5053699;28;20205;-61
2024/01/16 07:36:36;;;;;;;7.03;4.50;;;0.40;99.90;;;;;;5054146;28;20216;-62
2024/01/16 07:39:04;;;;;;;6.60;4.28;;;0.40;99.90;;;;;;5055167;28;20582;-63
2024/01/16 07:41:31;;;;;;;4.65;4.20;;;0.40;99.90;;;;;;5055502;28;20316;-62
2024/01/16 07:43:58;;;;;;;9.80;4.20;;;0.50;99.90;;;;;;5057487;28;20202;-61
2024/01/16 07:46:25;;;;;;;8.30;4.63;;;0.50;99.90;;;;;;5058567;28;20198;-62
2024/01/16 07:48:52;;;;;;;10.50;4.80;;;0.50;99.90;;;;;;5057443;28;20259;-62
2024/01/16 07:51:18;;;;;;;9.73;4.57;;;0.50;99.90;;;;;;5056260;28;20248;-62
2024/01/16 07:53:46;;;;;;;9.00;4.70;;;0.50;99.90;;;;;;5053514;28;20230;-62
2024/01/16 07:56:14;;;;;;;10.50;4.88;;;0.50;99.90;;;;;;5053257;28;20300;-63
2024/01/16 07:58:41;;;;;;;6.90;4.03;;;0.50;99.90;;;;;;5058575;28;20217;-63
2024/01/16 08:01:07;;;;;;;4.90;4.30;;;0.50;99.90;;;;;;5055545;28;20304;-62
2024/01/16 08:03:34;;;;;;;9.40;4.75;;;0.50;99.90;;;;;;5053273;28;20186;-62
2024/01/16 08:06:01;;;;;;;8.43;4.68;;;0.50;99.90;;;;;;5052974;28;20579;-63
2024/01/16 08:08:28;;;;;;;7.55;3.83;;;0.50;99.90;;;;;;5054082;28;20205;-62
2024/01/16 08:10:55;;;;;;;8.40;5.07;;;0.50;99.90;;;;;;5053224;28;20253;-61
2024/01/16 08:13:24;;;;;;;6.50;4.82;;;0.60;99.90;;;;;;5053311;28;20271;-63
2024/01/16 08:15:50;;;;;;;10.27;4.90;;;0.60;99.90;;;;;;5052935;28;20206;-62
2024/01/16 08:18:17;;;;;;;4.07;3.45;;;0.70;99.90;;;;;;5053348;28;20575;-62
2024/01/16 08:20:44;;;;;;;6.32;4.30;;;0.70;99.90;;;;;;5053476;28;20490;-62
2024/01/16 08:23:11;;;;;;;12.57;5.03;;;0.70;99.90;;;;;;5052896;28;20217;-62
2024/01/16 08:25:38;;;;;;;11.30;4.22;;;0.70;99.90;;;;;;5053241;28;20280;-62
2024/01/16 08:28:05;;;;;;;10.15;4.80;;;0.70;99.90;;;;;;5053175;28;20235;-61
2024/01/16 08:30:33;;;;;;;7.60;5.40;;;0.80;99.90;;;;;;5053183;28;20210;-63
2024/01/16 08:33:00;;;;;;;7.18;3.65;;;0.80;99.90;;;;;;5053000;28;20226;-62
2024/01/16 08:35:27;;;;;;;8.50;5.25;;;0.80;99.90;;;;;;5053186;28;20205;-63
2024/01/16 08:37:53;;;;;;;7.35;4.22;;;0.80;99.90;;;;;;5052808;28;20686;-63
2024/01/16 08:40:20;;;;;;;9.35;5.05;;;0.90;99.90;;;;;;5052905;28;20293;-63
2024/01/16 08:42:51;;;;;;;5.35;4.00;;;0.90;99.90;;;;;;5053912;28;20218;-63
2024/01/16 08:45:18;;;;;;;9.00;4.93;;;0.90;99.90;;;;;;5054362;28;20197;-64
2024/01/16 08:47:46;;;;;;;9.40;4.78;;;1.00;99.90;;;;;;5054282;28;20209;-63
2024/01/16 08:50:12;;;;;;;8.60;4.45;;;1.00;99.90;;;;;;5053955;28;20209;-63
2024/01/16 08:52:39;;;;;;;8.45;4.40;;;1.10;99.90;;;;;;5053833;28;20229;-63
2024/01/16 08:55:06;;;;;;;5.43;4.70;;;1.10;99.90;;;;;;5053656;28;20585;-63
2024/01/16 08:57:33;;;;;;;9.25;5.40;;;1.10;99.90;;;;;;5054519;28;20691;-63
2024/01/16 09:00:00;;;;;;;8.60;5.03;;;1.10;99.90;;;;;;5060883;28;20206;-62
2024/01/16 09:02:28;;;;;;;8.80;5.10;;;1.10;99.90;;;;;;5066095;28;20260;-62
2024/01/16 09:04:56;;;;;;;8.10;5.70;;;1.20;99.90;;;;;;5067779;28;20198;-62
2024/01/16 09:07:23;;;;;;;13.98;6.70;;;1.20;99.90;;;;;;5067944;28;20201;-63
2024/01/16 09:09:50;;;;;;;7.63;4.70;;;1.20;99.90;;;;;;5060328;28;20292;-63
2024/01/16 09:12:17;;;;;;;8.32;5.45;;;1.10;99.90;;;;;;5056678;28;20221;-63
2024/01/16 09:14:43;;;;;;;10.23;5.55;;;1.20;99.90;;;;;;5056970;28;20288;-63
2024/01/16 09:17:11;;;;;;;13.13;6.00;;;1.20;99.90;;;;;;5057233;28;20204;-62
2024/01/16 09:19:37;;;;;;;8.07;5.38;;;1.20;99.90;;;;;;5057294;28;20228;-63
2024/01/16 09:22:05;;;;;;;9.40;4.93;;;1.20;99.90;;;;;;5056845;28;20221;-62
2024/01/16 09:24:32;;;;;;;9.73;5.70;;;1.30;99.90;;;;;;5057321;28;20547;-62
2024/01/16 09:26:59;;;;;;;10.65;5.25;;;1.30;99.90;;;;;;5058262;28;20201;-63
2024/01/16 09:29:26;;;;;;;7.78;5.05;;;1.30;99.90;;;;;;5055969;28;20217;-63
2024/01/16 09:31:52;;;;;;;12.73;5.60;;;1.40;99.90;;;;;;5057054;28;20221;-62
2024/01/16 09:34:19;;;;;;;7.28;4.15;;;1.40;99.90;;;;;;5055693;28;20221;-63
2024/01/16 09:36:46;;;;;;;7.85;5.03;;;1.40;99.90;;;;;;5056448;28;20197;-64
2024/01/16 09:39:16;;;;;;;11.57;5.65;;;1.50;99.90;;;;;;5055838;28;20197;-63
2024/01/16 09:41:42;;;;;;;9.07;4.80;;;1.50;99.90;;;;;;5055873;28;20228;-63
2024/01/16 09:44:10;;;;;;;5.35;4.85;;;1.50;99.90;;;;;;5056115;28;20213;-63
2024/01/16 09:46:39;;;;;;;8.60;4.82;;;1.50;99.90;;;;;;5056150;28;20198;-63
2024/01/16 09:49:06;;;;;;;6.88;4.63;;;1.50;99.90;;;;;;5056270;28;20248;-63
2024/01/16 09:51:33;;;;;;;5.57;4.20;;;1.60;99.90;;;;;;5058012;28;20217;-63
2024/01/16 09:54:01;;;;;;;7.47;3.97;;;1.70;99.90;;;;;;5060914;28;20288;-64
2024/01/16 09:56:31;;;;;;;6.28;4.03;;;1.70;99.90;;;;;;5064829;28;20292;-63
2024/01/16 09:59:04;;;;;;;7.60;4.10;;;1.70;99.90;;;;;;5061083;28;20216;-63
2024/01/16 10:01:32;;;;;;;8.00;4.22;;;1.80;99.90;;;;;;5056463;28;20228;-62
2024/01/16 10:04:00;;;;;;;8.07;4.85;;;1.90;99.90;;;;;;5056208;28;20182;-63
2024/01/16 10:06:28;;;;;;;7.13;3.90;;;2.00;99.90;;;;;;5056195;28;20206;-62
2024/01/16 10:08:55;;;;;;;5.43;3.70;;;2.20;99.90;;;;;;5056533;28;20201;-63
2024/01/16 10:11:22;;;;;;;7.22;3.65;;;2.20;99.90;;;;;;5056269;28;20221;-63
2024/01/16 10:13:50;;;;;;;3.45;3.15;;;2.30;99.90;;;;;;5055775;28;20217;-63
2024/01/16 10:16:17;;;;;;;9.38;3.75;;;2.40;99.90;;;;;;5055735;28;20225;-63
2024/01/16 10:18:44;;;;;;;7.50;3.80;;;2.40;99.90;;;;;;5056046;28;20202;-63
2024/01/16 10:21:22;;;;;;;5.82;4.40;;;2.40;99.90;;;;;;5055945;28;20202;-63
2024/01/16 10:23:50;;;;;;;8.25;4.20;;;2.50;99.90;;;;;;5056143;28;20190;-63
2024/01/16 10:26:18;;;;;;;6.68;4.75;;;2.50;99.90;;;;;;5055806;28;20197;-63
2024/01/16 10:28:44;;;;;;;6.38;4.28;;;2.60;99.90;;;;;;5055913;28;20202;-61
2024/01/16 10:31:14;;;;;;;6.32;4.07;;;2.70;99.90;;;;;;5055565;28;20280;-62
2024/01/16 10:33:41;;;;;;;7.32;4.18;;;2.70;99.90;;;;;;5056616;28;20275;-62
2024/01/16 10:36:10;;;;;;;5.55;4.43;;;2.80;99.90;;;;;;5055416;28;20205;-61
2024/01/16 10:38:39;;;;;;;5.10;3.95;;;2.80;99.90;;;;;;5055504;28;20202;-62
2024/01/16 10:41:07;;;;;;;6.68;4.40;;;2.80;99.90;;;;;;5056607;28;20256;-63
2024/01/16 10:43:34;;;;;;;8.80;4.78;;;2.80;99.90;;;;;;5054565;28;20690;-63
2024/01/16 10:46:08;;;;;;;4.25;3.45;;;2.80;99.90;;;;;;5054424;28;20542;-63
2024/01/16 10:48:36;;;;;;;6.78;3.50;;;2.80;99.90;;;;;;5055126;28;20258;-61
2024/01/16 10:51:05;;;;;;;6.13;3.95;;;2.80;99.90;;;;;;5055400;28;20281;-62
2024/01/16 10:53:34;;;;;;;5.80;3.58;;;2.80;99.90;;;;;;5054939;28;20312;-62
2024/01/16 10:56:02;;;;;;;4.95;3.60;;;2.80;99.90;;;;;;5054391;28;20198;-64
2024/01/16 10:58:31;;;;;;;5.03;3.90;;;2.80;99.90;;;;;;5055467;28;20212;-64
2024/01/16 11:01:02;;;;;;;3.95;3.55;;;2.90;99.90;;;;;;5054867;28;20224;-62
2024/01/16 11:03:34;;;;;;;6.13;4.78;;;2.90;99.90;;;;;;5054890;28;20193;-64
2024/01/16 11:06:06;;;;;;;6.43;3.75;;;2.90;99.90;;;;;;5055181;28;20193;-62
2024/01/16 11:08:33;;;;;;;5.25;3.95;;;2.90;99.90;;;;;;5055993;28;20186;-64
2024/01/16 11:11:00;;;;;;;5.93;3.85;;;3.00;99.90;;;;;;5054683;28;20201;-63
2024/01/16 11:13:28;;;;;;;5.28;4.35;;;3.00;99.90;;;;;;5054563;28;20654;-64
2024/01/16 11:15:56;;;;;;;4.97;3.85;;;3.00;99.90;;;;;;5054946;28;20647;-63
2024/01/16 11:18:23;;;;;;;5.45;4.20;;;3.00;99.90;;;;;;5055967;28;20209;-62
2024/01/16 11:20:50;;;;;;;8.07;3.90;;;3.00;99.90;;;;;;5054870;28;20523;-63
2024/01/16 11:23:18;;;;;;;5.13;3.92;;;3.00;99.90;;;;;;5055522;28;20579;-61
2024/01/16 11:25:45;;;;;;;6.60;4.32;;;3.00;99.90;;;;;;5055047;28;20201;-63
2024/01/16 11:28:14;;;;;;;8.48;3.85;;;3.00;99.90;;;;;;5054829;28;20213;-63
2024/01/16 11:30:42;;;;;;;6.88;4.32;;;3.00;99.90;;;;;;5055015;28;20590;-63
2024/01/16 11:33:43;;;;;;;12.85;4.30;;;3.00;99.90;;;;;;5053779;28;20305;-63
2024/01/16 11:36:40;;;;;;;7.43;3.58;;;3.10;99.90;;;;;;5053379;28;20192;-63
2024/01/16 11:39:11;;;;;;;7.22;3.83;;;3.10;99.90;;;;;;5051883;28;20664;-63
2024/01/16 11:41:59;;;;;;;6.38;4.05;;;3.20;99.90;;;;;;5053922;28;20645;-63
2024/01/16 11:44:42;;;;;;;9.52;3.70;;;3.20;99.90;;;;;;5049759;28;20205;-63
2024/01/16 11:47:10;;;;;;;7.22;3.38;;;3.30;99.90;;;;;;5054244;28;20194;-63
2024/01/16 11:49:37;;;;;;;5.78;2.75;;;3.20;99.90;;;;;;5053873;28;20577;-63
2024/01/16 11:52:04;;;;;;;4.82;3.65;;;3.10;99.90;;;;;;5053733;28;20221;-64
2024/01/16 11:54:33;;;;;;;11.30;3.75;;;3.10;99.90;;;;;;5053561;28;20225;-65
2024/01/16 11:57:37;;;;;;;5.75;3.53;;;3.00;99.90;;;;;;5053800;28;20205;-63
2024/01/16 12:00:12;;;;;;;7.95;3.30;;;3.00;99.90;;;;;;5051876;28;20197;-62
2024/01/16 12:02:54;;;;;;;8.32;3.40;;;2.90;99.90;;;;;;5070231;28;20296;-63
2024/01/16 12:05:21;;;;;;;6.70;4.55;;;2.80;99.90;;;;;;5054519;28;20186;-64
2024/01/16 12:07:50;;;;;;;4.90;3.85;;;2.70;99.90;;;;;;5053576;28;20244;-63
2024/01/16 12:10:18;;;;;;;6.30;3.55;;;2.70;99.90;;;;;;5052816;28;20251;-63
2024/01/16 12:12:46;;;;;;;7.60;3.70;;;2.70;99.90;;;;;;5053134;28;20295;-63
2024/01/16 12:15:17;;;;;;;8.48;3.58;;;2.60;99.90;;;;;;5052795;28;20217;-63
2024/01/16 12:17:58;;;;;;;6.90;3.78;;;2.60;99.90;;;;;;5053448;28;20265;-62
2024/01/16 12:20:27;;;;;;;5.28;3.70;;;2.50;99.90;;;;;;5053379;28;20276;-64
2024/01/16 12:23:01;;;;;;;5.97;3.15;;;2.50;99.90;;;;;;5052873;28;20226;-63
2024/01/16 12:25:30;;;;;;;5.82;3.65;;;2.50;99.90;;;;;;5053678;28;20193;-63
2024/01/16 12:27:58;;;;;;;7.93;4.25;;;2.50;99.90;;;;;;5053647;28;20209;-63
2024/01/16 12:30:28;;;;;;;6.38;3.33;;;2.40;99.90;;;;;;5053650;28;20301;-62
2024/01/16 12:33:04;;;;;;;9.35;4.20;;;2.40;99.90;;;;;;5054626;28;20221;-62
2024/01/16 12:35:31;;;;;;;4.85;3.58;;;2.40;99.90;;;;;;5058862;28;20250;-63
2024/01/16 12:38:02;;;;;;;6.65;3.95;;;2.50;99.90;;;;;;5057577;28;20612;-63
2024/01/16 12:40:30;;;;;;;7.72;3.90;;;2.50;99.90;;;;;;5061729;28;20209;-64
2024/01/16 12:42:57;;;;;;;5.70;4.20;;;2.60;99.90;;;;;;5061504;28;20248;-62
2024/01/16 12:45:24;;;;;;;6.57;4.13;;;2.50;99.90;;;;;;5057759;28;20198;-63
2024/01/16 12:47:54;;;;;;;8.32;3.55;;;2.50;99.90;;;;;;5057956;28;20291;-62
2024/01/16 12:50:22;;;;;;;7.80;4.30;;;2.50;99.90;;;;;;5057542;28;20216;-62
2024/01/16 12:52:49;;;;;;;5.60;3.53;;;2.50;99.90;;;;;;5057768;28;20320;-64
2024/01/16 12:55:17;;;;;;;6.53;3.92;;;2.50;99.90;;;;;;5056880;28;20221;-63
2024/01/16 12:57:45;;;;;;;7.55;4.85;;;2.50;99.90;;;;;;5057084;28;20225;-63
2024/01/16 13:00:23;;;;;;;10.23;5.05;;;2.50;99.90;;;;;;5056776;28;20622;-64